Terminal Aerodrome Forecast
Issued by NWS

Home | Current Version | Previous Version | Text Only | Print | Product List | Glossary On
Versions: 1 2 3 4 5 6 7 8 9 10 11 12 13 14 15 16 17 18
000
FTUS43 KAPX 221720
TAFPLN
TAF
KPLN 221720Z 2218/2318 09006KT P6SM SCT040 OVC080
     FM230100 VRB03KT P6SM VCSH SCT025 OVC040
     FM231500 11007KT P6SM -SHRA SCT015 OVC025=

USA.gov is the U.S. government's official web portal to all federal, state and local government web resources and services.